createdAt,value
2023-04-30T00:00:39.331Z,22.27
2023-04-30T00:03:07.608Z,20.30
2023-04-30T00:05:35.902Z,18.43
2023-04-30T00:08:04.188Z,18.70
2023-04-30T00:10:32.356Z,17.53
2023-04-30T00:13:01.857Z,21.67
2023-04-30T00:15:30.038Z,21.37
2023-04-30T00:17:58.267Z,19.90
2023-04-30T00:20:26.912Z,23.13
2023-04-30T00:22:55.786Z,19.33
2023-04-30T00:25:24.640Z,22.63
2023-04-30T00:27:53.001Z,21.43
2023-04-30T00:30:22.556Z,21.20
2023-04-30T00:32:50.821Z,18.93
2023-04-30T00:35:19.197Z,18.83
2023-04-30T00:37:48.124Z,25.43
2023-04-30T00:40:16.725Z,23.07
2023-04-30T00:42:45.073Z,23.10
2023-04-30T00:45:13.378Z,24.93
2023-04-30T00:47:43.048Z,23.30
2023-04-30T00:50:15.783Z,19.53
2023-04-30T00:52:44.877Z,24.47
2023-04-30T00:55:14.120Z,24.37
2023-04-30T00:57:42.457Z,23.17
2023-04-30T01:00:14.990Z,24.23
2023-04-30T01:02:45.671Z,18.97
2023-04-30T01:05:13.984Z,21.73
2023-04-30T01:07:45.250Z,21.87
2023-04-30T01:10:15.152Z,23.80
2023-04-30T01:12:54.051Z,29.53
2023-04-30T01:15:30.355Z,26.03
2023-04-30T01:18:07.666Z,29.93
2023-04-30T01:20:40.198Z,35.27
2023-04-30T01:23:34.374Z,29.60
2023-04-30T01:26:14.985Z,27.90
2023-04-30T01:28:47.180Z,28.07
2023-04-30T01:31:16.615Z,28.07
2023-04-30T01:33:44.883Z,30.10
2023-04-30T01:36:34.700Z,29.47
2023-04-30T01:39:16.514Z,24.43
2023-04-30T01:41:56.409Z,26.73
2023-04-30T01:44:44.139Z,34.23
2023-04-30T01:47:26.039Z,29.50
2023-04-30T01:50:06.640Z,30.20
2023-04-30T01:52:51.743Z,31.80
2023-04-30T01:55:25.973Z,30.43
2023-04-30T01:57:59.466Z,29.03
2023-04-30T02:00:31.587Z,30.17
2023-04-30T02:03:00.355Z,36.30
2023-04-30T02:05:28.879Z,30.37
2023-04-30T02:07:57.574Z,31.30
2023-04-30T02:10:29.547Z,30.83
2023-04-30T02:12:57.724Z,32.60
2023-04-30T02:15:26.117Z,36.37
2023-04-30T02:17:55.814Z,34.83
2023-04-30T02:20:24.312Z,32.57
2023-04-30T02:22:52.942Z,28.73
2023-04-30T02:25:21.152Z,39.93
2023-04-30T02:27:50.617Z,34.50
2023-04-30T02:30:20.084Z,40.63
2023-04-30T02:32:49.193Z,36.30
2023-04-30T02:35:19.014Z,35.37
2023-04-30T02:37:47.221Z,33.47
2023-04-30T02:40:15.879Z,39.23
2023-04-30T02:42:44.095Z,34.33
2023-04-30T02:45:12.464Z,31.73
2023-04-30T02:47:40.740Z,34.37
2023-04-30T02:50:10.047Z,32.87
2023-04-30T02:52:39.671Z,41.17
2023-04-30T02:55:09.792Z,35.50
2023-04-30T02:57:38.038Z,37.37
2023-04-30T03:00:08.410Z,30.70
2023-04-30T03:02:38.907Z,30.47
2023-04-30T03:05:08.027Z,36.63
2023-04-30T03:07:36.630Z,32.67
2023-04-30T03:10:09.421Z,28.67
2023-04-30T03:12:37.528Z,28.50
2023-04-30T03:15:10.725Z,28.77
2023-04-30T03:17:38.934Z,32.30
2023-04-30T03:20:08.982Z,28.57
2023-04-30T03:22:37.248Z,30.50
2023-04-30T03:25:09.497Z,33.47
2023-04-30T03:27:37.672Z,33.70
2023-04-30T03:30:07.767Z,32.17
2023-04-30T03:32:36.018Z,29.57
2023-04-30T03:35:04.968Z,31.33
2023-04-30T03:37:33.455Z,41.27
2023-04-30T03:40:01.645Z,30.90
2023-04-30T03:42:31.147Z,27.47
2023-04-30T03:44:59.408Z,32.30
2023-04-30T03:47:27.681Z,40.47
2023-04-30T03:49:56.658Z,37.40
2023-04-30T03:52:26.516Z,31.20
2023-04-30T03:54:55.092Z,31.33
2023-04-30T03:57:23.464Z,41.27
2023-04-30T03:59:53.326Z,35.23
2023-04-30T04:02:22.237Z,47.67
2023-04-30T04:04:53.682Z,42.33
2023-04-30T04:07:22.047Z,37.37
2023-04-30T04:09:50.417Z,37.90
2023-04-30T04:12:18.721Z,39.43
2023-04-30T04:14:46.812Z,31.63
2023-04-30T04:17:16.521Z,40.47
2023-04-30T04:19:45.902Z,39.20
2023-04-30T04:22:14.721Z,36.17
2023-04-30T04:24:45.926Z,42.93
2023-04-30T04:27:17.728Z,45.50
2023-04-30T04:29:46.203Z,43.60
2023-04-30T04:32:16.576Z,46.77
2023-04-30T04:34:45.910Z,45.47
2023-04-30T04:37:15.562Z,47.67
2023-04-30T04:39:45.064Z,51.17
2023-04-30T04:42:13.521Z,40.83
2023-04-30T04:44:42.539Z,47.83
2023-04-30T04:47:12.664Z,41.87
2023-04-30T04:49:42.255Z,46.00
2023-04-30T04:52:11.054Z,59.27
2023-04-30T04:54:39.453Z,46.90
2023-04-30T04:57:07.735Z,48.07
2023-04-30T04:59:35.902Z,45.53
2023-04-30T05:02:04.146Z,46.87
2023-04-30T05:04:32.375Z,47.70
2023-04-30T05:07:02.001Z,42.13
2023-04-30T05:09:30.541Z,48.20
2023-04-30T05:11:58.665Z,52.73
2023-04-30T05:14:28.567Z,45.33
2023-04-30T05:16:56.713Z,41.97
2023-04-30T05:19:25.004Z,43.20
2023-04-30T05:21:53.184Z,43.77
2023-04-30T05:24:22.871Z,47.07
2023-04-30T05:26:51.065Z,42.67
2023-04-30T05:29:19.219Z,42.97
2023-04-30T05:31:47.417Z,42.97
2023-04-30T05:34:15.636Z,45.20
2023-04-30T05:36:44.616Z,40.70
2023-04-30T05:39:12.791Z,40.23
2023-04-30T05:41:42.435Z,37.23
2023-04-30T05:44:13.609Z,33.47
2023-04-30T05:46:41.846Z,33.93
2023-04-30T05:49:10.850Z,32.17
2023-04-30T05:51:38.985Z,35.67
2023-04-30T05:54:07.459Z,32.40
2023-04-30T05:56:35.562Z,29.67
2023-04-30T05:59:05.110Z,36.63
2023-04-30T06:01:33.806Z,31.70
2023-04-30T06:04:03.974Z,32.27
2023-04-30T06:06:32.381Z,37.00
2023-04-30T06:09:00.580Z,32.60
2023-04-30T06:11:28.776Z,30.13
2023-04-30T06:13:58.239Z,30.50
2023-04-30T06:16:30.358Z,28.90
2023-04-30T06:18:58.593Z,28.20
2023-04-30T06:21:29.670Z,28.50
2023-04-30T06:23:57.922Z,26.10
2023-04-30T06:26:29.817Z,28.20
2023-04-30T06:28:58.122Z,26.07
2023-04-30T06:31:27.830Z,22.67
2023-04-30T06:33:56.069Z,24.63
2023-04-30T06:36:24.323Z,21.10
2023-04-30T06:38:54.859Z,22.17
2023-04-30T06:41:27.945Z,22.47
2023-04-30T06:43:56.166Z,20.77
2023-04-30T06:46:24.395Z,23.90
2023-04-30T06:48:53.856Z,19.73
2023-04-30T06:51:22.098Z,19.87
2023-04-30T06:53:50.629Z,20.50
2023-04-30T06:56:18.861Z,19.17
2023-04-30T06:58:47.049Z,21.17
2023-04-30T07:01:15.243Z,20.67
2023-04-30T07:03:43.519Z,23.50
2023-04-30T07:06:13.258Z,21.20
2023-04-30T07:08:43.843Z,21.97
2023-04-30T07:11:12.539Z,20.80
2023-04-30T07:13:40.863Z,22.17
2023-04-30T07:16:10.688Z,21.50
2023-04-30T07:18:39.961Z,17.23
2023-04-30T07:21:08.684Z,19.30
2023-04-30T07:23:38.220Z,18.67
2023-04-30T07:26:06.761Z,22.70
2023-04-30T07:28:34.915Z,18.43
2023-04-30T07:31:03.223Z,21.20
2023-04-30T07:33:34.466Z,18.90
2023-04-30T07:36:02.845Z,21.30
2023-04-30T07:38:31.017Z,20.43
2023-04-30T07:41:01.791Z,18.00
2023-04-30T07:43:31.892Z,16.83
2023-04-30T07:46:00.580Z,17.87
2023-04-30T07:48:28.855Z,18.97
2023-04-30T07:50:57.579Z,22.57
2023-04-30T07:53:25.742Z,23.40
2023-04-30T07:55:53.999Z,18.23
2023-04-30T07:58:23.409Z,16.80
2023-04-30T08:00:51.841Z,18.40
2023-04-30T08:03:20.749Z,14.70
2023-04-30T08:05:49.031Z,17.43
2023-04-30T08:08:17.277Z,13.60
2023-04-30T08:10:45.419Z,16.70
2023-04-30T08:13:13.629Z,13.93
2023-04-30T08:15:43.228Z,13.60
2023-04-30T08:18:11.509Z,14.07
2023-04-30T08:20:40.753Z,15.37
2023-04-30T08:23:09.346Z,13.17
2023-04-30T08:25:38.008Z,15.20
2023-04-30T08:28:07.633Z,14.87
2023-04-30T08:30:35.908Z,14.23
2023-04-30T08:33:05.759Z,13.07
2023-04-30T08:35:34.039Z,11.90
2023-04-30T08:38:02.365Z,15.00
2023-04-30T08:40:49.287Z,12.07
2023-04-30T08:43:20.228Z,13.67
2023-04-30T08:45:50.166Z,12.03
2023-04-30T08:48:22.372Z,14.77
2023-04-30T08:50:50.657Z,13.47
2023-04-30T08:53:21.760Z,24.53
2023-04-30T08:55:50.135Z,15.03
2023-04-30T08:58:18.741Z,13.93
2023-04-30T09:00:47.134Z,12.47
2023-04-30T09:03:15.529Z,14.70
2023-04-30T09:05:45.210Z,11.33
2023-04-30T09:08:20.291Z,16.53
2023-04-30T09:10:48.553Z,13.77
2023-04-30T09:13:17.057Z,14.17
2023-04-30T09:15:46.085Z,9.10
2023-04-30T09:18:17.714Z,9.30
2023-04-30T09:21:00.792Z,10.57
2023-04-30T09:23:30.091Z,13.30
2023-04-30T09:25:58.522Z,12.07
2023-04-30T09:28:28.686Z,15.50
2023-04-30T09:30:59.241Z,11.20
2023-04-30T09:33:27.567Z,14.47
2023-04-30T09:35:57.585Z,9.93
2023-04-30T09:38:31.061Z,10.97
2023-04-30T09:41:00.933Z,9.90
2023-04-30T09:43:29.674Z,8.93
2023-04-30T09:46:00.563Z,11.70
2023-04-30T09:48:29.611Z,12.13
2023-04-30T09:50:59.552Z,12.47
2023-04-30T09:53:29.228Z,10.50
2023-04-30T09:56:03.766Z,9.43
2023-04-30T09:58:37.433Z,12.90
2023-04-30T10:01:07.918Z,10.10
2023-04-30T10:03:37.071Z,9.43
2023-04-30T10:06:09.019Z,11.00
2023-04-30T10:08:43.184Z,12.07
2023-04-30T10:11:16.796Z,8.20
2023-04-30T10:13:52.677Z,8.00
2023-04-30T10:16:31.604Z,10.13
2023-04-30T10:19:08.130Z,9.33
2023-04-30T10:21:43.600Z,9.13
2023-04-30T10:24:14.562Z,11.47
2023-04-30T10:26:43.597Z,9.70
2023-04-30T10:29:12.998Z,11.70
2023-04-30T10:31:44.353Z,9.23
2023-04-30T10:34:24.048Z,8.67
2023-04-30T10:37:01.315Z,7.30
2023-04-30T10:39:30.325Z,7.30
2023-04-30T10:42:06.557Z,9.20
2023-04-30T10:44:36.093Z,7.67
2023-04-30T10:47:05.746Z,8.00
2023-04-30T10:49:34.866Z,7.50
2023-04-30T10:52:06.408Z,8.03
2023-04-30T10:54:38.393Z,6.20
2023-04-30T10:57:14.677Z,3.97
2023-04-30T10:59:53.641Z,5.13
2023-04-30T11:02:22.070Z,4.90
2023-04-30T11:05:18.513Z,5.83
2023-04-30T11:07:53.251Z,6.57
2023-04-30T11:10:24.208Z,7.80
2023-04-30T11:12:54.609Z,7.80
2023-04-30T11:15:26.347Z,8.10
2023-04-30T11:17:59.567Z,6.60
2023-04-30T11:20:30.529Z,9.10
2023-04-30T11:23:21.838Z,6.30
2023-04-30T11:25:57.854Z,6.47
2023-04-30T11:28:28.347Z,6.60
2023-04-30T11:30:59.078Z,7.23
2023-04-30T11:33:29.460Z,6.03
2023-04-30T11:35:59.282Z,8.23
2023-04-30T11:38:31.838Z,5.63
2023-04-30T11:41:00.569Z,6.33
2023-04-30T11:43:31.046Z,5.47
2023-04-30T11:46:08.941Z,6.37
2023-04-30T11:48:39.446Z,6.17
2023-04-30T11:51:16.807Z,7.17
2023-04-30T11:53:47.705Z,7.97
2023-04-30T11:56:19.417Z,6.07
2023-04-30T11:58:49.033Z,7.27
2023-04-30T12:01:18.396Z,7.10
2023-04-30T12:03:48.912Z,6.70
2023-04-30T12:06:24.533Z,6.43
2023-04-30T12:08:57.645Z,6.67
2023-04-30T12:11:27.710Z,9.47
2023-04-30T12:13:57.897Z,6.47
2023-04-30T12:16:26.638Z,8.80
2023-04-30T12:18:58.953Z,10.40
2023-04-30T12:21:29.092Z,9.80
2023-04-30T12:23:59.086Z,7.80
2023-04-30T12:26:37.213Z,8.13
2023-04-30T12:29:06.792Z,11.70
2023-04-30T12:31:35.644Z,8.47
2023-04-30T12:34:09.007Z,9.80
2023-04-30T12:36:37.889Z,8.57
2023-04-30T12:39:13.055Z,8.63
2023-04-30T12:41:43.239Z,8.60
2023-04-30T12:44:22.786Z,9.43
2023-04-30T12:46:53.470Z,8.90
2023-04-30T12:49:29.302Z,10.27
2023-04-30T12:52:04.811Z,9.67
2023-04-30T12:54:34.842Z,8.53
2023-04-30T12:57:06.932Z,10.90
2023-04-30T12:59:38.579Z,8.27
2023-04-30T13:02:11.422Z,8.10
2023-04-30T13:04:40.540Z,8.70
2023-04-30T13:07:09.002Z,8.50
2023-04-30T13:09:39.687Z,8.77
2023-04-30T13:12:08.513Z,8.83
2023-04-30T13:14:36.888Z,7.67
2023-04-30T13:17:07.108Z,9.47
2023-04-30T13:19:35.743Z,8.00
2023-04-30T13:22:03.960Z,8.13
2023-04-30T13:24:32.190Z,8.87
2023-04-30T13:27:02.781Z,11.67
2023-04-30T13:29:32.085Z,8.23
2023-04-30T13:32:02.533Z,8.93
2023-04-30T13:34:30.772Z,9.40
2023-04-30T13:36:59.562Z,7.80
2023-04-30T13:39:27.855Z,9.03
2023-04-30T13:41:56.156Z,16.63
2023-04-30T13:44:26.779Z,8.93
2023-04-30T13:46:56.096Z,9.40
2023-04-30T13:49:25.690Z,6.97
2023-04-30T13:51:54.993Z,7.07
2023-04-30T13:54:25.179Z,7.90
2023-04-30T13:56:55.461Z,9.20
2023-04-30T13:59:23.764Z,6.70
2023-04-30T14:01:53.761Z,6.83
2023-04-30T14:04:29.135Z,6.27
2023-04-30T14:06:58.851Z,6.40
2023-04-30T14:09:27.681Z,7.87
2023-04-30T14:11:59.662Z,6.33
2023-04-30T14:14:32.256Z,6.30
2023-04-30T14:17:02.577Z,7.33
2023-04-30T14:19:32.692Z,7.93
2023-04-30T14:22:01.616Z,6.07
2023-04-30T14:24:30.183Z,7.50
2023-04-30T14:26:59.973Z,6.97
2023-04-30T14:29:28.521Z,5.50
2023-04-30T14:31:57.072Z,6.93
2023-04-30T14:34:27.683Z,6.17
2023-04-30T14:36:59.299Z,6.53
2023-04-30T14:39:28.060Z,6.37
2023-04-30T14:41:56.324Z,6.23
2023-04-30T14:44:25.542Z,5.60
2023-04-30T14:46:54.447Z,5.33
2023-04-30T14:49:22.792Z,6.80
2023-04-30T14:51:52.417Z,7.07
2023-04-30T14:54:20.709Z,5.50
2023-04-30T14:56:49.195Z,8.83
2023-04-30T14:59:17.771Z,6.63
2023-04-30T15:01:46.239Z,5.83
2023-04-30T15:04:14.544Z,4.40
2023-04-30T15:06:43.183Z,5.93
2023-04-30T15:09:13.808Z,5.00
2023-04-30T15:11:42.268Z,9.97
2023-04-30T15:14:11.669Z,12.17
2023-04-30T15:16:40.061Z,33.67
2023-04-30T15:19:08.450Z,7.10
2023-04-30T15:21:37.371Z,5.17
2023-04-30T15:24:06.317Z,11.47
2023-04-30T15:26:36.063Z,5.27
2023-04-30T15:29:04.393Z,6.40
2023-04-30T15:31:32.926Z,4.20
2023-04-30T15:34:01.396Z,6.67
2023-04-30T15:36:29.653Z,7.30
2023-04-30T15:38:57.806Z,4.77
2023-04-30T15:41:25.983Z,8.90
2023-04-30T15:43:55.500Z,4.60
2023-04-30T15:46:23.929Z,5.90
2023-04-30T15:48:52.273Z,7.10
2023-04-30T15:51:20.481Z,6.33
2023-04-30T15:53:48.730Z,4.57
2023-04-30T15:56:18.530Z,5.23
2023-04-30T15:58:46.691Z,6.23
2023-04-30T16:01:16.235Z,4.43
2023-04-30T16:03:44.657Z,3.77
2023-04-30T16:06:13.628Z,4.60
2023-04-30T16:08:42.635Z,4.80
2023-04-30T16:11:11.084Z,3.27
2023-04-30T16:13:39.206Z,3.33
2023-04-30T16:16:08.836Z,5.67
2023-04-30T16:18:38.559Z,4.70
2023-04-30T16:21:09.398Z,4.90
2023-04-30T16:23:37.830Z,4.67
2023-04-30T16:26:06.102Z,7.23
2023-04-30T16:28:34.346Z,8.37
2023-04-30T16:31:03.313Z,8.63
2023-04-30T16:33:31.547Z,5.07
2023-04-30T16:36:01.539Z,5.40
2023-04-30T16:38:30.128Z,10.30
2023-04-30T16:40:58.396Z,167.23
2023-04-30T16:43:26.733Z,32.70
2023-04-30T16:45:54.954Z,7.83
2023-04-30T16:48:23.094Z,5.20
2023-04-30T16:50:51.494Z,4.93
2023-04-30T16:53:21.851Z,7.13
2023-04-30T16:55:51.499Z,5.10
2023-04-30T16:58:19.696Z,18.37
2023-04-30T17:00:49.712Z,10.00
2023-04-30T17:03:18.023Z,5.33
2023-04-30T17:05:46.319Z,4.17
2023-04-30T17:08:15.237Z,7.17
2023-04-30T17:10:45.124Z,4.30
2023-04-30T17:13:14.104Z,7.97
2023-04-30T17:15:43.371Z,4.20
2023-04-30T17:18:13.172Z,4.20
2023-04-30T17:20:41.821Z,6.43
2023-04-30T17:23:13.089Z,4.10
2023-04-30T17:25:41.258Z,2.83
2023-04-30T17:28:10.889Z,4.17
2023-04-30T17:30:39.663Z,5.67
2023-04-30T17:33:08.051Z,4.73
2023-04-30T17:35:36.477Z,3.43
2023-04-30T17:38:05.144Z,5.63
2023-04-30T17:40:34.248Z,3.97
2023-04-30T17:43:02.812Z,7.77
2023-04-30T17:45:32.404Z,2.97
2023-04-30T17:48:00.711Z,3.80
2023-04-30T17:50:29.091Z,25.33
2023-04-30T17:52:58.034Z,8.93
2023-04-30T17:55:27.156Z,4.40
2023-04-30T17:57:55.958Z,5.00
2023-04-30T18:00:24.431Z,2.87
2023-04-30T18:02:54.334Z,3.80
2023-04-30T18:05:25.133Z,9.87
2023-04-30T18:07:53.439Z,3.43
2023-04-30T18:10:24.088Z,4.43
2023-04-30T18:12:53.699Z,3.77
2023-04-30T18:15:23.835Z,7.00
2023-04-30T18:17:53.882Z,130.17
2023-04-30T18:20:22.639Z,9.33
2023-04-30T18:22:52.009Z,5.47
2023-04-30T18:25:20.477Z,3.53
2023-04-30T18:27:48.798Z,4.20
2023-04-30T18:30:17.352Z,3.83
2023-04-30T18:32:45.753Z,5.53
2023-04-30T18:35:15.593Z,3.20
2023-04-30T18:37:44.030Z,7.47
2023-04-30T18:40:13.319Z,9.33
2023-04-30T18:42:41.552Z,4.33
2023-04-30T18:45:11.796Z,4.80
2023-04-30T18:47:40.219Z,6.53
2023-04-30T18:50:13.377Z,9.80
2023-04-30T18:52:43.142Z,4.13
2023-04-30T18:55:13.786Z,11.33
2023-04-30T18:57:43.307Z,5.80
2023-04-30T19:00:14.625Z,13.30
2023-04-30T19:02:44.192Z,9.50
2023-04-30T19:05:12.546Z,7.80
2023-04-30T19:07:42.238Z,4.50
2023-04-30T19:10:11.200Z,8.13
2023-04-30T19:12:39.580Z,4.43
2023-04-30T19:15:11.533Z,6.27
2023-04-30T19:17:40.259Z,7.27
2023-04-30T19:20:10.453Z,3.70
2023-04-30T19:22:38.755Z,7.03
2023-04-30T19:25:10.018Z,4.10
2023-04-30T19:27:38.350Z,3.40
2023-04-30T19:30:10.833Z,3.30
2023-04-30T19:32:39.062Z,4.13
2023-04-30T19:35:08.621Z,2.67
2023-04-30T19:37:37.720Z,4.37
2023-04-30T19:40:11.894Z,3.93
2023-04-30T19:42:40.152Z,5.93
2023-04-30T19:45:10.814Z,3.80
2023-04-30T19:47:39.532Z,4.27
2023-04-30T19:50:09.805Z,4.47
2023-04-30T19:52:38.119Z,3.97
2023-04-30T19:55:06.903Z,6.87
2023-04-30T19:57:36.464Z,3.80
2023-04-30T20:00:06.287Z,4.63
2023-04-30T20:02:35.307Z,4.97
2023-04-30T20:05:05.666Z,4.43
2023-04-30T20:07:35.830Z,3.30
2023-04-30T20:10:04.313Z,5.20
2023-04-30T20:12:32.601Z,5.80
2023-04-30T20:15:02.173Z,3.73
2023-04-30T20:17:30.470Z,5.00
2023-04-30T20:19:58.756Z,7.47
2023-04-30T20:22:27.548Z,3.73
2023-04-30T20:24:56.421Z,5.70
2023-04-30T20:27:25.832Z,5.63
2023-04-30T20:29:54.125Z,4.23
2023-04-30T20:32:23.930Z,6.10
2023-04-30T20:34:52.790Z,4.37
2023-04-30T20:37:20.938Z,5.10
2023-04-30T20:39:49.215Z,6.00
2023-04-30T20:42:17.816Z,4.07
2023-04-30T20:44:47.069Z,4.80
2023-04-30T20:47:15.360Z,7.87
2023-04-30T20:49:44.959Z,6.67
2023-04-30T20:52:13.569Z,5.47
2023-04-30T20:54:42.236Z,7.40
2023-04-30T20:57:10.664Z,4.63
2023-04-30T20:59:39.327Z,6.13
2023-04-30T21:02:07.679Z,5.87
2023-04-30T21:04:35.873Z,6.47
2023-04-30T21:07:05.790Z,9.13
2023-04-30T21:09:35.624Z,5.30
2023-04-30T21:12:05.384Z,6.03
2023-04-30T21:14:34.038Z,7.83
2023-04-30T21:17:02.397Z,7.43
2023-04-30T21:19:31.649Z,6.50
2023-04-30T21:21:59.783Z,6.73
2023-04-30T21:24:31.624Z,7.20
2023-04-30T21:27:00.144Z,7.27
2023-04-30T21:29:28.361Z,9.33
2023-04-30T21:31:56.998Z,6.70
2023-04-30T21:34:25.330Z,8.43
2023-04-30T21:36:53.465Z,6.67
2023-04-30T21:39:21.972Z,8.57
2023-04-30T21:41:51.437Z,8.03
2023-04-30T21:44:20.479Z,6.30
2023-04-30T21:46:48.908Z,11.47
2023-04-30T21:49:18.392Z,12.33
2023-04-30T21:51:46.517Z,8.57
2023-04-30T21:54:14.673Z,10.70
2023-04-30T21:56:42.822Z,6.37
2023-04-30T21:59:12.481Z,7.70
2023-04-30T22:01:40.726Z,6.80
2023-04-30T22:04:08.997Z,7.50
2023-04-30T22:06:37.436Z,8.57
2023-04-30T22:09:06.177Z,7.30
2023-04-30T22:11:34.427Z,6.60
2023-04-30T22:14:04.081Z,8.73
2023-04-30T22:16:33.981Z,9.10
2023-04-30T22:19:02.322Z,7.83
2023-04-30T22:21:30.997Z,7.00
2023-04-30T22:24:00.814Z,8.10
2023-04-30T22:26:29.090Z,10.47
2023-04-30T22:28:59.526Z,8.70
2023-04-30T22:31:27.811Z,11.70
2023-04-30T22:33:57.453Z,11.33
2023-04-30T22:36:28.013Z,6.43
2023-04-30T22:38:59.411Z,9.30
2023-04-30T22:41:30.376Z,11.67
2023-04-30T22:43:58.558Z,9.17
2023-04-30T22:46:27.358Z,8.10
2023-04-30T22:48:58.928Z,12.37
2023-04-30T22:51:29.928Z,9.30
2023-04-30T22:53:58.243Z,8.80
2023-04-30T22:56:26.688Z,9.37
2023-04-30T22:58:54.854Z,9.00
2023-04-30T23:01:23.147Z,11.60
2023-04-30T23:03:51.396Z,9.10
2023-04-30T23:06:21.008Z,12.87
2023-04-30T23:08:49.608Z,9.13
2023-04-30T23:11:17.804Z,6.73
2023-04-30T23:13:45.923Z,7.60
2023-04-30T23:16:14.415Z,8.67
2023-04-30T23:18:42.873Z,8.20
2023-04-30T23:21:11.192Z,7.23
2023-04-30T23:23:40.748Z,6.10
2023-04-30T23:26:08.867Z,7.00
2023-04-30T23:28:37.952Z,6.73
2023-04-30T23:31:06.244Z,7.63
2023-04-30T23:33:34.486Z,9.30
2023-04-30T23:36:04.276Z,8.53
2023-04-30T23:38:32.361Z,9.40
2023-04-30T23:41:03.026Z,9.97
2023-04-30T23:43:32.750Z,7.70
2023-04-30T23:46:01.221Z,9.00
2023-04-30T23:48:30.431Z,7.93
2023-04-30T23:51:02.707Z,8.40
2023-04-30T23:53:32.166Z,6.80
2023-04-30T23:56:01.867Z,7.13
2023-04-30T23:58:31.190Z,9.77
